Aktuelle Bildergalerien
Formel-1-Datenbank

Die "Königsklasse" seit 1950

In unserer ausführlichen Formel-1-Datenbank finden Sie Ergebnisse, alle Fahrer und Teams seit 1950 und unzählige Statistiken!
Zur Formel-1-Datenbank
ANZEIGE
ANZEIGE
ANZEIGE
Folgen Sie uns!
Motorsport-Total.com bei Facebook Motorsport-Total.com bei Google+ Motorsport-Total.com bei Twitter RSS-Feeds von Motorsport-Total.com
Sie sind hier: Home > Formel 1 > Ergebnisse > Europa 2012

 GP Europa in Valencia / 3. Freies Training

Session-Informationen im Überblick
Datum 23. Juni 2012 Wetter sonnig
Zeit (MESZ) 11:00-12:00 Uhr Lufttemp. 25°C
Ortszeit 11:00-12:00 Uhr Luftfeucht. 60%
Teilnehmer 24 Luftdruck 1.022 mBar
Rekord Rennen 1:38.683 Minuten Asphalt 28-38°C
Rekord Qualifying 1:36.975 Minuten Wind 2 m/s, Nordosten

Gefahrene Zeiten

Pos. Nr. Fahrer Team Zeit Abstand auf V. Rnd.
1 3 J. Button McLaren 1:38.562     17
2 10 R. Grosjean Lotus 1:38.655 +0:00.093 +0:00.093 18
3 9 K. Räikkönen Lotus 1:38.759 +0:00.197 +0:00.104 18
4 12 N. Hülkenberg Force India 1:38.819 +0:00.257 +0:00.060 17
5 11 P. di Resta Force India 1:38.892 +0:00.330 +0:00.073 17
6 15 S. Perez Sauber 1:39.084 +0:00.522 +0:00.192 20
7 7 M. Schumacher Mercedes 1:39.141 +0:00.579 +0:00.057 15
8 4 L. Hamilton McLaren 1:39.178 +0:00.616 +0:00.037 17
9 6 F. Massa Ferrari 1:39.318 +0:00.756 +0:00.140 15
10 18 P. Maldonado Williams 1:39.357 +0:00.795 +0:00.039 18
11 14 K. Kobayashi Sauber 1:39.358 +0:00.796 +0:00.001 19
12 5 F. Alonso Ferrari 1:39.395 +0:00.833 +0:00.037 15
13 1 S. Vettel Red Bull 1:39.434 +0:00.872 +0:00.039 13
14 19 B. Senna Williams 1:39.543 +0:00.981 +0:00.109 13
15 8 N. Rosberg Mercedes 1:39.946 +0:01.384 +0:00.403 20
16 17 J. Vergne Toro Rosso 1:40.037 +0:01.475 +0:00.091 17
17 16 D. Ricciardo Toro Rosso 1:40.134 +0:01.572 +0:00.097 20
18 20 H. Kovalainen Caterham 1:40.681 +0:02.119 +0:00.547 15
19 2 M. Webber Red Bull 1:41.282 +0:02.720 +0:00.601 4
20 21 W. Petrow Caterham 1:41.931 +0:03.369 +0:00.649 15
21 22 P. de la Rosa HRT 1:42.758 +0:04.196 +0:00.827 14
22 25 C. Pic Marussia 1:42.815 +0:04.253 +0:00.057 16
23 23 N. Karthikeyan HRT 1:42.943 +0:04.381 +0:00.128 14
24 24 T. Glock Marussia 1:43.124 +0:04.562 +0:00.181 16
  107-Prozent-Zeit 1:45.461
auf V. = auf Vordermann, Rnd. = Runden

 

 
Nach oben